AirNav   Everest Fuels
 
 1466 users online  

4AR5 Lawrence Field Gliderport
Cherry Valley, Arkansas, USA

GOING TO CHERRY VALLEY?


FAA INFORMATION EFFECTIVE 22 APRIL 2021

Location

FAA Identifier: 4AR5
Lat/Long: 35-22-15.0000N 090-45-02.0000W
35-22.250000N 090-45.033333W
35.3708333,-90.7505556
(estimated)
Elevation: 284 ft. / 87 m (estimated)
From city: 2 miles S of CHERRY VALLEY, AR
Time zone: UTC -5 (UTC -6 during Standard Time)
Zip code: 72324

Gliderport Operations

Gliderport use: Private use. Permission required prior to landing
Activation date: 01/2003
Control tower: no
ARTCC: MEMPHIS CENTER
FSS: JONESBORO FLIGHT SERVICE STATION
Attendance: UNATNDD
Wind indicator: yes
Segmented circle: no

Nearby radio navigation aids

VOR radial/distance  VOR name  Freq  Var
GQEr272/13.4GILMORE VOR/DME113.0004E
JBRr195/31.3JONESBORO VOR/DME108.6000W

Gliderport Services

Runway Information

Runway 7/25

Dimensions: 3625 x 300 ft. / 1105 x 91 m
Surface: turf
RUNWAY 7  RUNWAY 25
Traffic pattern: leftleft
Displaced threshold: 320 ft.no
Obstructions: 20 ft. trees, 2 ft. from runwaynone

Gliderport Ownership and Management from official FAA records

Ownership: Privately-owned
Owner: MEMPHIS SOARING SOCIETY
2090 OLD OAK DR.
MEMPHIS, TN 38119
Phone 870-588-4422
Manager: 101 CR 338
CHERRY VALLEY, AR 72324
Phone 870-588-4422

Gliderport Operational Statistics

Aircraft based on the field: 22
Single engine airplanes: 2
Gliders airplanes: 20
    

Additional Remarks

FOR CD CTC MEMPHIS ARTCC AT 901-368-8453/8449.

Instrument Procedures

There are no published instrument procedures at 4AR5.

Some nearby airports with instrument procedures:

KDRP - Delta Regional Airport (16 nm S)
M60 - Woodruff County Airport (26 nm W)
M19 - Newport Regional Airport (26 nm NW)
KJBR - Jonesboro Municipal Airport (28 nm N)
KAWM - West Memphis Municipal Airport (29 nm SE)
 
Loc | Ops | Rwys | IFR | FBO | Links
Com | Nav | Svcs | Stats | Notes
Area around 4AR5 (Lawrence Field Gliderport)
 
Road maps at: MapQuest Bing Google
 
Aerial photo
WARNING: Photo may not be current or correct
Aerial photo of 4AR5 (Lawrence Field Gliderport)
Do you have a better or more recent aerial photo of Lawrence Field Gliderport that you would like to share? If so, please send us your photo.

 
Sectional chart

 
Airport distance calculator
Flying to Lawrence Field Gliderport? Find the distance to fly.

From to 4AR5

Sunrise and sunset
Times for 14-May-2021
 Local
(UTC-5)
 Zulu
(UTC)
Morning civil twilight05:3210:32
Sunrise06:0011:00
Sunset19:5800:58
Evening civil twilight20:2701:27

Current date and time
Zulu (UTC)  14-May-2021 17:23:35
Local (UTC-5)  14-May-2021 12:23:35
 
METAR
KM19 
26nm NW 
141656Z AUTO VRB03KT 10SM CLR 21/06 A3034 RMK AO2 SLP273 T02110056
KJBR 
28nm N 
141653Z AUTO 13004KT 10SM CLR 21/01 A3034 RMK AO2 SLP272 T02060011 $
KAWM 
29nm SE 
141653Z AUTO 06005KT 10SM CLR 22/03 A3031 RMK AO2 SLP261 T02170028 $
KMEM 
42nm SE 
141654Z 12005KT 10SM CLR 21/03 A3032 RMK AO2 SLP265 T02060028 $
KNQA 
43nm E 
141650Z 09006KT 10SM CLR 21/06 A3034
KARG 
45nm N 
141656Z AUTO 00000KT 10SM CLR 20/01 A3034 RMK AO2 SLP275 T02000011
KUTA 
46nm SE 
141655Z AUTO 32005KT 10SM CLR 20/05 A3033 RMK AO2 TSNO
KBVX 
49nm NW 
141656Z AUTO VRB06KT 10SM CLR 21/05 A3034 RMK AO2 SLP274 T02110050
KSRC 
49nm W 
141656Z AUTO 11007KT 10SM CLR 22/07 A3034 RMK AO2 SLP273 T02170067
TAF
KJBR 
28nm N 
141120Z 1412/1512 04002KT P6SM SKC FM141500 11007KT P6SM SKC FM142100 10004KT P6SM SCT120
NOTAMs
Click for the latest NOTAMs
NOTAMs are issued by the DoD/FAA and will open in a separate window not controlled by AirNav.

 

 
 

Would you like to see your business listed on this page?

 If your business provides an interesting product or service to pilots, flight crews, aircraft, or users of the Lawrence Field Gliderport, you should consider listing it here.  To start the listing process, click on the button below
 
Add a business
 

Other Pages about Lawrence Field Gliderport

Update a link
 
Copyright © AirNav, LLC. All rights reserved. Privacy Policy  Contact